• Join FlightAware (Why Join?)
  • Login
  • US Flag 
Rudolph Flight #1: Arrived! 
10:52AM EST


 

Airport Tracker/Info


-or-


 

Live Flight TrackerFlight Track Log ✈ CCA4298 ✈ 09-Aug-2013 ✈ ZUJZ / JZH - ZUCK / CKG

Flight Track Log - Related Links

Times and Time Zones

All times are in EDT time to prevent confusion due to time zone crossing. See the CCA4298 flight status page for this flight to view local times or setup timezone preferences in your user account.

Time Position Orientation Groundspeed Altitude Reporting Facility
EDT Latitude Longitude Course Direction KTS MPH feet Rate Location/Type
05:02AM 32.6426 103.8937 140° Southeast  Level Estimated
05:03AM 32.5889 103.9463 140° Southeast  Level Estimated
05:04AM 32.5353 103.9987 141° Southeast  Level Estimated
05:05AM 32.4815 104.0511 141° Southeast  Level Estimated
05:06AM 32.4278 104.1035 141° Southeast  Level Estimated
05:07AM 32.3741 104.1557 141° Southeast  Level Estimated
05:07AM 32.4450 104.0540 141° Southeast 435 501 24,600  Level FlightAware
05:08AM 32.3203 104.2080 141° Southeast  Level Estimated
05:08AM 32.4310 104.1460 100° East 459 528 24,600  Level FlightAware
05:08AM 32.4210 104.2270 98° East 462 532 24,600  Level FlightAware
05:09AM 32.4110 104.3170 97° East 460 529 24,600  Level FlightAware
05:09AM 32.4090 104.4190 91° East 460 529 24,600  Level FlightAware
05:10AM 32.4080 104.5120 91° East 459 528 24,600  Level FlightAware
05:11AM 32.4070 104.5960 91° East 455 524 24,600  Level FlightAware
05:11AM 32.4070 104.6840 90° East 455 524 24,600  Level FlightAware
05:12AM 32.4070 104.7610 90° East 455 524 24,600  Level FlightAware
05:12AM 32.4070 104.8370 90° East 455 524 24,600  Level FlightAware
05:13AM 32.4070 104.9130 90° East 455 524 24,600  Level FlightAware
05:14AM 32.4070 104.9900 90° East 455 524 24,600  Level FlightAware
05:14AM 32.4070 105.0660 90° East 455 524 24,600  Level FlightAware
05:17AM 32.2666 105.1508 153° Southeast  Level Estimated
05:18AM 32.2046 105.1882 153° Southeast  Level Estimated
05:19AM 32.1427 105.2255 153° Southeast  Level Estimated
05:20AM 32.0807 105.2627 153° Southeast  Level Estimated
05:21AM 32.0187 105.2999 153° Southeast  Level Estimated
05:22AM 31.9567 105.3370 153° Southeast  Level Estimated
05:23AM 31.8947 105.3741 153° Southeast  Level Estimated
05:24AM 31.8327 105.4112 153° Southeast  Level Estimated
05:25AM 31.7706 105.4482 153° Southeast  Level Estimated
05:26AM 31.7086 105.4851 153° Southeast  Level Estimated
05:27AM 31.6465 105.5220 153° Southeast  Level Estimated
05:28AM 31.5844 105.5588 153° Southeast  Level Estimated
05:29AM 31.5224 105.5956 153° Southeast  Level Estimated
05:30AM 31.4603 105.6323 153° Southeast  Level Estimated
05:31AM 31.3982 105.6690 153° Southeast  Level Estimated
05:32AM 31.3361 105.7057 153° Southeast  Level Estimated
05:33AM 31.2739 105.7423 153° Southeast  Level Estimated
05:34AM 31.2118 105.7788 153° Southeast  Level Estimated
05:35AM 31.1497 105.8153 153° Southeast  Level Estimated
05:36AM 31.0875 105.8518 153° Southeast  Level Estimated
05:37AM 31.0254 105.8882 153° Southeast  Level Estimated
05:38AM 30.9632 105.9246 153° Southeast  Level Estimated
05:39AM 30.9010 105.9609 153° Southeast  Level Estimated
05:40AM 30.8388 105.9971 153° Southeast  Level Estimated
05:41AM 30.7766 106.0333 153° Southeast  Level Estimated
05:42AM 30.7144 106.0695 153° Southeast  Level Estimated
05:43AM 30.6522 106.1056 153° Southeast  Level Estimated
05:44AM 30.5900 106.1417 153° Southeast  Level Estimated
05:45AM 30.5277 106.1777 153° Southeast  Level Estimated
05:46AM 30.4655 106.2137 154° Southeast  Level Estimated
05:47AM 30.4032 106.2497 154° Southeast  Level Estimated
05:48AM 30.3409 106.2856 154° Southeast  Level Estimated
05:49AM 30.2787 106.3214 154° Southeast  Level Estimated
05:50AM 30.2164 106.3572 154° Southeast  Level Estimated
05:51AM 30.1541 106.3930 154° Southeast  Level Estimated
05:52AM 30.0918 106.4287 154° Southeast  Level Estimated
05:53AM 30.0294 106.4643 154° Southeast  Level Estimated
05:54AM 29.9671 106.4999 154° Southeast  Level Estimated
05:55AM 29.9048 106.5355 154° Southeast  Level Estimated
05:56AM 29.8424 106.5710 154° Southeast  Level Estimated
05:57AM 29.7801 106.6065 154° Southeast  Level Estimated
05:58AM 29.7194 106.6410 154° Southeast  Level Estimated
05:59AM 29.7194 106.6410 60° Northeast  Level Estimated
06:00AM 29.7194 106.6410 60° Northeast  Level Estimated
06:01AM 29.7194 106.6410 60° Northeast  Level Estimated